createdAt,value
2022-08-09T00:00:59.048Z,97615.69
2022-08-09T00:04:06.250Z,97621.81
2022-08-09T00:06:23.295Z,97620.50
2022-08-09T00:08:57.008Z,97612.34
2022-08-09T00:12:02.876Z,97616.38
2022-08-09T00:14:21.928Z,97628.00
2022-08-09T00:17:05.403Z,97619.22
2022-08-09T00:19:33.941Z,97622.13
2022-08-09T00:22:03.493Z,97617.06
2022-08-09T00:24:32.917Z,97614.66
2022-08-09T00:27:03.969Z,97614.31
2022-08-09T00:30:10.021Z,97622.94
2022-08-09T00:32:25.376Z,97622.13
2022-08-09T00:34:53.810Z,97622.94
2022-08-09T00:37:22.189Z,97627.84
2022-08-09T00:40:13.128Z,97626.47
2022-08-09T00:44:14.162Z,97628.19
2022-08-09T00:45:30.519Z,97627.25
2022-08-09T00:48:04.345Z,97619.78
2022-08-09T00:50:37.864Z,97619.47
2022-08-09T00:53:10.582Z,97630.13
2022-08-09T00:56:04.718Z,97625.63
2022-08-09T00:58:34.449Z,97628.72
2022-08-09T01:01:08.129Z,97624.56
2022-08-09T01:03:51.416Z,97626.84
2022-08-09T01:06:54.381Z,97627.88
2022-08-09T01:09:36.478Z,97626.59
2022-08-09T01:12:16.440Z,97630.19
2022-08-09T01:15:05.883Z,97629.84
2022-08-09T01:17:47.184Z,97626.53
2022-08-09T01:20:25.932Z,97633.63
2022-08-09T01:24:02.744Z,97631.53
2022-08-09T01:26:57.390Z,97630.41
2022-08-09T01:29:40.878Z,97634.03
2022-08-09T01:32:29.783Z,97634.75
2022-08-09T01:35:18.084Z,97629.09
2022-08-09T01:38:09.316Z,97629.44
2022-08-09T01:40:44.911Z,97635.03
2022-08-09T01:43:24.357Z,97630.97
2022-08-09T01:45:58.046Z,97629.50
2022-08-09T01:48:31.429Z,97636.66
2022-08-09T01:51:02.585Z,97635.03
2022-08-09T01:53:41.410Z,97638.13
2022-08-09T01:56:13.096Z,97629.50
2022-08-09T01:58:49.021Z,97630.53
2022-08-09T02:01:20.013Z,97636.97
2022-08-09T02:04:01.027Z,97637.59
2022-08-09T02:06:58.434Z,97637.25
2022-08-09T02:09:41.895Z,97635.53
2022-08-09T02:12:21.188Z,97638.53
2022-08-09T02:14:56.005Z,97633.94
2022-08-09T02:17:59.457Z,97641.44
2022-08-09T02:20:26.494Z,97641.31
2022-08-09T02:23:09.836Z,97640.41
2022-08-09T02:25:42.449Z,97645.91
2022-08-09T02:28:24.414Z,97643.75
2022-08-09T02:31:05.781Z,97649.25
2022-08-09T02:34:06.463Z,97646.38
2022-08-09T02:36:34.371Z,97647.63
2022-08-09T02:39:14.436Z,97648.19
2022-08-09T02:41:56.014Z,97655.56
2022-08-09T02:44:32.437Z,97657.72
2022-08-09T02:47:08.320Z,97655.28
2022-08-09T02:49:46.946Z,97656.56
2022-08-09T02:52:35.850Z,97661.75
2022-08-09T02:55:20.102Z,97659.91
2022-08-09T02:57:59.772Z,97660.25
2022-08-09T03:00:57.692Z,97649.44
2022-08-09T03:04:05.771Z,97644.84
2022-08-09T03:06:22.718Z,97651.03
2022-08-09T03:08:52.766Z,97649.91
2022-08-09T03:12:04.877Z,97655.97
2022-08-09T03:14:14.594Z,97651.03
2022-08-09T03:16:48.137Z,97656.41
2022-08-09T03:19:52.471Z,97658.91
2022-08-09T03:22:12.106Z,97662.06
2022-08-09T03:25:05.797Z,97659.75
2022-08-09T03:27:45.218Z,97654.78
2022-08-09T03:30:29.183Z,97660.19
2022-08-09T03:33:12.953Z,97664.41
2022-08-09T03:36:13.035Z,97661.41
2022-08-09T03:38:42.108Z,97660.78
2022-08-09T03:41:15.192Z,97660.00
2022-08-09T03:44:03.265Z,97666.50
2022-08-09T03:46:33.513Z,97660.03
2022-08-09T03:49:08.480Z,97672.88
2022-08-09T03:51:58.410Z,97675.50
2022-08-09T03:54:34.523Z,97668.72
2022-08-09T03:57:18.008Z,97678.13
2022-08-09T03:59:54.601Z,97669.06
2022-08-09T04:02:28.342Z,97668.72
2022-08-09T04:05:00.773Z,97674.56
2022-08-09T04:07:33.738Z,97676.19
2022-08-09T04:10:28.473Z,97677.19
2022-08-09T04:13:04.046Z,97683.00
2022-08-09T04:16:17.205Z,97680.94
2022-08-09T04:18:22.091Z,97677.19
2022-08-09T04:20:51.335Z,97688.94
2022-08-09T04:23:24.712Z,97688.75
2022-08-09T04:25:54.703Z,97690.50
2022-08-09T04:28:33.195Z,97693.16
2022-08-09T04:31:09.333Z,97689.41
2022-08-09T04:33:51.981Z,97690.31
2022-08-09T04:36:27.468Z,97698.19
2022-08-09T04:39:00.768Z,97701.88
2022-08-09T04:41:32.121Z,97709.13
2022-08-09T04:44:06.664Z,97710.19
2022-08-09T04:46:58.862Z,97709.19
2022-08-09T04:49:53.184Z,97707.34
2022-08-09T04:52:26.133Z,97702.13
2022-08-09T04:55:04.162Z,97715.03
2022-08-09T04:57:54.409Z,97711.94
2022-08-09T05:00:24.564Z,97713.91
2022-08-09T05:02:53.230Z,97724.28
2022-08-09T05:05:51.879Z,97716.72
2022-08-09T05:08:14.026Z,97724.31
2022-08-09T05:10:45.608Z,97707.44
2022-08-09T05:13:14.796Z,97719.28
2022-08-09T05:15:48.163Z,97720.88
2022-08-09T05:18:42.843Z,97721.34
2022-08-09T05:21:10.082Z,97724.66
2022-08-09T05:23:59.805Z,97725.56
2022-08-09T05:26:45.344Z,97724.81
2022-08-09T05:29:21.562Z,97734.34
2022-08-09T05:31:57.206Z,97731.59
2022-08-09T05:34:31.358Z,97735.59
2022-08-09T05:37:06.199Z,97739.59
2022-08-09T05:39:43.302Z,97742.25
2022-08-09T05:42:21.606Z,97747.13
2022-08-09T05:44:52.193Z,97746.50
2022-08-09T05:47:21.725Z,97740.97
2022-08-09T05:50:25.968Z,97744.94
2022-08-09T05:52:41.971Z,97744.25
2022-08-09T05:55:20.929Z,97744.72
2022-08-09T05:57:56.741Z,97742.09
2022-08-09T06:00:28.605Z,97742.56
2022-08-09T06:02:58.729Z,97737.59
2022-08-09T06:05:50.499Z,97742.94
2022-08-09T06:08:19.331Z,97738.94
2022-08-09T06:10:52.954Z,97742.66
2022-08-09T06:13:24.202Z,97748.19
2022-08-09T06:15:53.305Z,97752.59
2022-08-09T06:18:24.902Z,97755.66
2022-08-09T06:20:57.650Z,97760.19
2022-08-09T06:23:58.514Z,97762.78
2022-08-09T06:26:20.805Z,97762.00
2022-08-09T06:29:00.612Z,97767.41
2022-08-09T06:31:39.862Z,97766.44
2022-08-09T06:34:23.480Z,97762.81
2022-08-09T06:36:58.917Z,97771.63
2022-08-09T06:39:57.752Z,97759.25
2022-08-09T06:42:19.860Z,97766.88
2022-08-09T06:44:54.028Z,97769.28
2022-08-09T06:47:23.756Z,97771.66
2022-08-09T06:50:14.221Z,97772.38
2022-08-09T06:52:47.070Z,97777.19
2022-08-09T06:55:17.160Z,97765.19
2022-08-09T06:58:02.643Z,97772.78
2022-08-09T07:00:54.686Z,97769.13
2022-08-09T07:03:27.938Z,97777.09
2022-08-09T07:06:03.816Z,97769.94
2022-08-09T07:08:35.284Z,97773.16
2022-08-09T07:11:06.943Z,97771.50
2022-08-09T07:14:04.062Z,97776.25
2022-08-09T07:16:41.533Z,97773.63
2022-08-09T07:19:15.545Z,97789.09
2022-08-09T07:21:55.428Z,97789.25
2022-08-09T07:24:31.977Z,97787.03
2022-08-09T07:27:10.921Z,97791.16
2022-08-09T07:29:58.404Z,97786.41
2022-08-09T07:32:33.652Z,97795.38
2022-08-09T07:35:07.978Z,97790.94
2022-08-09T07:37:44.068Z,97797.34
2022-08-09T07:40:17.320Z,97793.03
2022-08-09T07:42:55.520Z,97794.72
2022-08-09T07:45:39.244Z,97788.94
2022-08-09T07:48:25.678Z,97795.13
2022-08-09T07:51:09.246Z,97799.47
2022-08-09T07:54:05.982Z,97797.84
2022-08-09T07:56:44.667Z,97793.91
2022-08-09T07:59:34.572Z,97789.59
2022-08-09T08:02:07.440Z,97783.19
2022-08-09T08:04:39.009Z,97783.16
2022-08-09T08:07:27.052Z,97792.38
2022-08-09T08:10:08.958Z,97787.22
2022-08-09T08:12:45.055Z,97789.16
2022-08-09T08:15:16.705Z,97786.72
2022-08-09T08:17:53.349Z,97784.66
2022-08-09T08:20:29.337Z,97790.16
2022-08-09T08:23:16.324Z,97799.00
2022-08-09T08:25:48.208Z,97803.84
2022-08-09T08:28:32.374Z,97803.50
2022-08-09T08:31:10.482Z,97795.56
2022-08-09T08:33:53.353Z,97794.75
2022-08-09T08:36:29.640Z,97797.03
2022-08-09T08:39:00.334Z,97798.13
2022-08-09T08:41:41.998Z,97802.53
2022-08-09T08:44:27.010Z,97811.34
2022-08-09T08:47:05.212Z,97804.72
2022-08-09T08:49:48.132Z,97807.50
2022-08-09T08:55:11.547Z,97801.75
2022-08-09T08:57:44.059Z,97810.81
2022-08-09T09:00:29.958Z,97808.00
2022-08-09T09:03:11.325Z,97804.06
2022-08-09T09:05:58.437Z,97798.88
2022-08-09T09:08:37.993Z,97791.19
2022-08-09T09:11:13.792Z,97790.88
2022-08-09T09:13:56.642Z,97795.25
2022-08-09T09:16:34.227Z,97797.91
2022-08-09T09:22:07.662Z,97798.94
2022-08-09T09:24:43.186Z,97792.31
2022-08-09T09:28:03.126Z,97794.13
2022-08-09T09:30:37.329Z,97793.13
2022-08-09T09:33:15.931Z,97798.28
2022-08-09T09:36:01.329Z,97794.81
2022-08-09T09:38:49.566Z,97787.09
2022-08-09T09:41:48.960Z,97795.25
2022-08-09T09:44:27.916Z,97800.69
2022-08-09T09:47:09.403Z,97794.28
2022-08-09T09:50:13.717Z,97794.81
2022-08-09T09:52:36.366Z,97798.28
2022-08-09T09:55:27.713Z,97799.38
2022-08-09T09:58:16.331Z,97794.84
2022-08-09T10:00:55.527Z,97791.44
2022-08-09T10:03:43.231Z,97790.59
2022-08-09T10:06:13.233Z,97784.25
2022-08-09T10:08:55.123Z,97790.09
2022-08-09T10:11:59.525Z,97790.53
2022-08-09T10:14:33.199Z,97801.19
2022-08-09T10:17:39.610Z,97803.81
2022-08-09T10:20:02.666Z,97789.78
2022-08-09T10:22:36.754Z,97787.28
2022-08-09T10:25:11.619Z,97781.03
2022-08-09T10:27:45.079Z,97777.41
2022-08-09T10:34:05.202Z,97763.34
2022-08-09T10:36:11.476Z,97761.00
2022-08-09T10:38:56.801Z,97763.91
2022-08-09T10:41:28.821Z,97753.69
2022-08-09T10:44:01.769Z,97753.31
2022-08-09T10:47:04.045Z,97753.19
2022-08-09T10:49:59.448Z,97751.47
2022-08-09T10:53:01.427Z,97757.97
2022-08-09T10:55:35.821Z,97744.72
2022-08-09T10:58:33.532Z,97736.19
2022-08-09T11:03:03.033Z,97741.72
2022-08-09T11:04:29.717Z,97739.97
2022-08-09T11:07:56.984Z,97735.47
2022-08-09T11:11:00.774Z,97735.44
2022-08-09T11:13:50.296Z,97731.63
2022-08-09T11:16:37.042Z,97729.50
2022-08-09T11:19:10.109Z,97738.81
2022-08-09T11:22:16.909Z,97737.66
2022-08-09T11:25:09.835Z,97731.47
2022-08-09T11:28:03.972Z,97734.28
2022-08-09T11:30:37.626Z,97721.69
2022-08-09T11:33:25.455Z,97735.22
2022-08-09T11:35:57.974Z,97723.78
2022-08-09T11:38:32.926Z,97724.97
2022-08-09T11:41:06.472Z,97732.22
2022-08-09T11:43:42.817Z,97727.47
2022-08-09T11:46:11.763Z,97719.41
2022-08-09T11:48:50.506Z,97708.75
2022-08-09T11:51:37.944Z,97706.47
2022-08-09T11:54:27.754Z,97715.56
2022-08-09T11:57:47.524Z,97713.53
2022-08-09T12:00:28.180Z,97707.31
2022-08-09T12:02:58.560Z,97709.75
2022-08-09T12:05:42.189Z,97712.94
2022-08-09T12:08:19.829Z,97703.84
2022-08-09T12:10:54.919Z,97711.00
2022-08-09T12:14:09.123Z,97702.84
2022-08-09T12:16:37.138Z,97704.41
2022-08-09T12:19:09.628Z,97700.38
2022-08-09T12:21:48.456Z,97695.47
2022-08-09T12:24:25.397Z,97704.22
2022-08-09T12:28:59.751Z,97701.19
2022-08-09T12:30:01.541Z,97697.81
2022-08-09T12:32:48.439Z,97700.06
2022-08-09T12:35:19.233Z,97690.00
2022-08-09T12:37:52.212Z,97694.53
2022-08-09T12:40:27.776Z,97685.53
2022-08-09T12:42:58.143Z,97685.38
2022-08-09T12:45:34.592Z,97684.16
2022-08-09T12:48:20.170Z,97682.88
2022-08-09T12:51:03.992Z,97685.72
2022-08-09T12:53:38.779Z,97684.91
2022-08-09T12:56:43.493Z,97681.97
2022-08-09T12:59:10.901Z,97678.28
2022-08-09T13:01:49.027Z,97669.56
2022-08-09T13:04:37.196Z,97670.69
2022-08-09T13:07:19.968Z,97665.03
2022-08-09T13:10:03.847Z,97664.16
2022-08-09T13:12:39.961Z,97664.28
2022-08-09T13:15:24.857Z,97657.53
2022-08-09T13:18:05.676Z,97661.88
2022-08-09T13:20:50.142Z,97645.28
2022-08-09T13:24:16.311Z,97654.69
2022-08-09T13:26:36.928Z,97657.59
2022-08-09T13:29:10.561Z,97663.50
2022-08-09T13:32:19.458Z,97653.69
2022-08-09T13:34:50.525Z,97659.16
2022-08-09T13:37:51.387Z,97666.25
2022-08-09T13:41:46.297Z,97654.09
2022-08-09T13:42:59.456Z,97654.75
2022-08-09T13:46:42.625Z,97653.50
2022-08-09T13:48:21.325Z,97650.00
2022-08-09T13:50:49.512Z,97662.50
2022-08-09T13:53:17.996Z,97657.59
2022-08-09T13:55:47.932Z,97665.44
2022-08-09T13:58:16.187Z,97657.88
2022-08-09T14:00:48.298Z,97656.88
2022-08-09T14:04:01.727Z,97658.63
2022-08-09T14:06:19.273Z,97653.88
2022-08-09T14:08:54.561Z,97644.00
2022-08-09T14:11:23.694Z,97642.75
2022-08-09T14:14:23.155Z,97632.47
2022-08-09T14:16:40.382Z,97635.09
2022-08-09T14:19:10.364Z,97642.75
2022-08-09T14:21:39.013Z,97642.59
2022-08-09T14:24:18.673Z,97633.81
2022-08-09T14:26:51.170Z,97646.19
2022-08-09T14:30:03.981Z,97645.47
2022-08-09T14:32:11.404Z,97638.50
2022-08-09T14:34:45.723Z,97636.94
2022-08-09T14:37:14.304Z,97640.25
2022-08-09T14:39:48.292Z,97636.91
2022-08-09T14:42:31.102Z,97644.56
2022-08-09T14:46:45.882Z,97646.22
2022-08-09T14:47:57.257Z,97643.88
2022-08-09T14:50:31.653Z,97638.38
2022-08-09T14:53:01.677Z,97642.97
2022-08-09T14:55:32.783Z,97638.03
2022-08-09T14:58:03.749Z,97642.94
2022-08-09T15:00:36.202Z,97636.47
2022-08-09T15:03:07.306Z,97647.78
2022-08-09T15:05:39.868Z,97644.84
2022-08-09T15:08:19.100Z,97641.88
2022-08-09T15:11:00.443Z,97635.16
2022-08-09T15:13:48.110Z,97628.47
2022-08-09T15:16:19.599Z,97633.91
2022-08-09T15:18:49.554Z,97630.31
2022-08-09T15:21:58.056Z,97635.59
2022-08-09T15:24:12.838Z,97626.00
2022-08-09T15:26:46.302Z,97617.94
2022-08-09T15:30:58.761Z,97623.50
2022-08-09T15:32:04.790Z,97618.66
2022-08-09T15:34:35.314Z,97617.03
2022-08-09T15:37:37.968Z,97619.84
2022-08-09T15:40:19.969Z,97610.25
2022-08-09T15:42:50.859Z,97610.84
2022-08-09T15:45:29.332Z,97611.06
2022-08-09T15:48:05.239Z,97608.34
2022-08-09T15:50:39.357Z,97610.56
2022-08-09T15:53:17.922Z,97606.94
2022-08-09T15:56:28.566Z,97611.19
2022-08-09T15:58:50.021Z,97608.59
2022-08-09T16:01:19.670Z,97606.34
2022-08-09T16:03:50.995Z,97613.91
2022-08-09T16:06:34.829Z,97614.66
2022-08-09T16:09:06.091Z,97619.34
2022-08-09T16:11:34.584Z,97612.72
2022-08-09T16:14:07.867Z,97622.16
2022-08-09T16:16:41.981Z,97611.50
2022-08-09T16:19:14.592Z,97611.53
2022-08-09T16:21:48.571Z,97600.91
2022-08-09T16:24:32.927Z,97603.31
2022-08-09T16:27:04.850Z,97600.56
2022-08-09T16:29:36.894Z,97609.91
2022-08-09T16:32:19.329Z,97616.97
2022-08-09T16:34:58.137Z,97610.84
2022-08-09T16:37:54.095Z,97613.44
2022-08-09T16:40:29.644Z,97613.28
2022-08-09T16:43:07.378Z,97616.25
2022-08-09T16:45:41.682Z,97613.00
2022-08-09T16:48:38.673Z,97616.81
2022-08-09T16:51:08.439Z,97616.25
2022-08-09T16:54:02.268Z,97608.25
2022-08-09T16:56:31.582Z,97611.25
2022-08-09T16:59:01.033Z,97605.50
2022-08-09T17:01:33.828Z,97615.00
2022-08-09T17:04:05.426Z,97612.88
2022-08-09T17:08:41.302Z,97610.63
2022-08-09T17:09:45.441Z,97609.00
2022-08-09T17:12:12.993Z,97612.88
2022-08-09T17:14:47.936Z,97598.50
2022-08-09T17:17:26.744Z,97611.22
2022-08-09T17:20:29.075Z,97610.47
2022-08-09T17:22:52.137Z,97606.91
2022-08-09T17:25:23.370Z,97611.16
2022-08-09T17:27:55.240Z,97613.78
2022-08-09T17:30:26.497Z,97621.03
2022-08-09T17:33:01.428Z,97621.72
2022-08-09T17:35:41.211Z,97625.94
2022-08-09T17:38:30.764Z,97628.19
2022-08-09T17:41:00.069Z,97638.25
2022-08-09T17:43:34.618Z,97633.56
2022-08-09T17:46:09.502Z,97647.53
2022-08-09T17:48:40.300Z,97646.72
2022-08-09T17:51:18.087Z,97644.78
2022-08-09T17:53:53.645Z,97646.00
2022-08-09T17:56:28.803Z,97646.03
2022-08-09T17:59:18.846Z,97652.06
2022-08-09T18:02:06.098Z,97649.28
2022-08-09T18:04:43.855Z,97651.72
2022-08-09T18:07:22.922Z,97655.34
2022-08-09T18:10:05.048Z,97650.22
2022-08-09T18:12:40.735Z,97656.63
2022-08-09T18:16:05.705Z,97652.63
2022-08-09T18:18:25.952Z,97655.03
2022-08-09T18:21:18.865Z,97657.06
2022-08-09T18:24:12.795Z,97652.66
2022-08-09T18:27:01.173Z,97661.06
2022-08-09T18:30:39.252Z,97661.44
2022-08-09T18:32:45.333Z,97662.19
2022-08-09T18:35:59.556Z,97668.09
2022-08-09T18:38:16.767Z,97666.44
2022-08-09T18:40:46.383Z,97664.72
2022-08-09T18:43:15.845Z,97675.44
2022-08-09T18:46:50.843Z,97678.47
2022-08-09T18:48:36.823Z,97679.19
2022-08-09T18:51:11.678Z,97680.59
2022-08-09T18:54:00.644Z,97686.91
2022-08-09T18:56:37.603Z,97695.16
2022-08-09T18:59:07.109Z,97696.31
2022-08-09T19:01:43.586Z,97695.00
2022-08-09T19:04:24.903Z,97699.38
2022-08-09T19:07:05.638Z,97708.50
2022-08-09T19:10:16.768Z,97707.28
2022-08-09T19:12:37.873Z,97718.84
2022-08-09T19:15:08.746Z,97716.03
2022-08-09T19:18:01.024Z,97720.75
2022-08-09T19:20:34.377Z,97721.38
2022-08-09T19:24:39.832Z,97724.59
2022-08-09T19:26:29.420Z,97730.06
2022-08-09T19:29:20.618Z,97729.31
2022-08-09T19:31:51.479Z,97733.94
2022-08-09T19:34:22.892Z,97732.19
2022-08-09T19:36:56.355Z,97728.09
2022-08-09T19:40:03.284Z,97733.50
2022-08-09T19:42:19.519Z,97736.59
2022-08-09T19:44:51.149Z,97731.78
2022-08-09T19:47:23.356Z,97736.03
2022-08-09T19:50:08.235Z,97733.19
2022-08-09T19:52:49.472Z,97747.13
2022-08-09T19:55:30.480Z,97745.16
2022-08-09T19:58:15.913Z,97744.72
2022-08-09T20:00:47.296Z,97762.59
2022-08-09T20:04:27.901Z,97752.22
2022-08-09T20:06:22.346Z,97757.31
2022-08-09T20:08:56.718Z,97752.06
2022-08-09T20:11:42.941Z,97760.78
2022-08-09T20:17:15.279Z,97760.22
2022-08-09T20:19:54.376Z,97765.31
2022-08-09T20:22:32.159Z,97759.25
2022-08-09T20:25:07.082Z,97764.69
2022-08-09T20:27:42.233Z,97754.75
2022-08-09T20:30:17.968Z,97768.56
2022-08-09T20:32:54.965Z,97772.22
2022-08-09T20:35:27.291Z,97770.66
2022-08-09T20:38:23.454Z,97773.81
2022-08-09T20:40:56.046Z,97766.91
2022-08-09T20:43:28.822Z,97773.09
2022-08-09T20:46:33.264Z,97772.97
2022-08-09T20:48:54.123Z,97768.81
2022-08-09T20:51:26.766Z,97773.94
2022-08-09T20:54:00.924Z,97772.16
2022-08-09T20:56:38.191Z,97773.56
2022-08-09T20:59:17.327Z,97775.41
2022-08-09T21:01:53.406Z,97772.50
2022-08-09T21:05:54.030Z,97777.97
2022-08-09T21:07:18.522Z,97780.81
2022-08-09T21:09:56.383Z,97782.09
2022-08-09T21:12:34.058Z,97779.22
2022-08-09T21:15:05.803Z,97779.34
2022-08-09T21:18:21.862Z,97778.44
2022-08-09T21:20:37.007Z,97779.16
2022-08-09T21:23:13.538Z,97775.75
2022-08-09T21:25:56.101Z,97771.66
2022-08-09T21:28:36.544Z,97773.47
2022-08-09T21:31:17.580Z,97772.78
2022-08-09T21:33:56.609Z,97783.97
2022-08-09T21:36:31.641Z,97783.91
2022-08-09T21:39:04.841Z,97768.06
2022-08-09T21:42:04.188Z,97768.97
2022-08-09T21:44:35.327Z,97769.69
2022-08-09T21:47:10.807Z,97780.78
2022-08-09T21:49:50.955Z,97779.38
2022-08-09T21:52:24.710Z,97780.69
2022-08-09T21:55:04.197Z,97774.63
2022-08-09T21:57:58.621Z,97779.63
2022-08-09T22:00:34.461Z,97779.63
2022-08-09T22:03:12.501Z,97773.44
2022-08-09T22:05:51.466Z,97782.59
2022-08-09T22:08:24.710Z,97779.47
2022-08-09T22:11:48.991Z,97774.16
2022-08-09T22:13:50.343Z,97772.84
2022-08-09T22:16:21.649Z,97772.75
2022-08-09T22:18:54.081Z,97771.66
2022-08-09T22:21:45.337Z,97771.16
2022-08-09T22:24:17.006Z,97774.09
2022-08-09T22:26:51.457Z,97774.25
2022-08-09T22:29:26.799Z,97775.78
2022-08-09T22:32:02.630Z,97780.22
2022-08-09T22:34:30.918Z,97779.44
2022-08-09T22:37:00.939Z,97779.72
2022-08-09T22:39:57.318Z,97775.59
2022-08-09T22:42:22.595Z,97770.31
2022-08-09T22:48:04.634Z,97774.31
2022-08-09T22:48:15.524Z,97769.66
2022-08-09T22:50:33.500Z,97775.03
2022-08-09T22:53:03.897Z,97775.38
2022-08-09T22:56:05.920Z,97766.47
2022-08-09T22:58:32.888Z,97763.50
2022-08-09T23:01:03.960Z,97762.59
2022-08-09T23:04:05.305Z,97765.72
2022-08-09T23:06:35.461Z,97763.88
2022-08-09T23:09:06.974Z,97771.16
2022-08-09T23:11:36.242Z,97774.19
2022-08-09T23:14:10.217Z,97774.78
2022-08-09T23:16:45.912Z,97763.09
2022-08-09T23:19:15.651Z,97756.56
2022-08-09T23:21:44.279Z,97765.44
2022-08-09T23:24:13.069Z,97765.69
2022-08-09T23:26:41.998Z,97767.97
2022-08-09T23:29:13.659Z,97761.47
2022-08-09T23:31:42.658Z,97759.38
2022-08-09T23:34:11.210Z,97756.50
2022-08-09T23:36:40.760Z,97757.56
2022-08-09T23:39:09.501Z,97767.69
2022-08-09T23:41:38.054Z,97759.75
2022-08-09T23:44:06.625Z,97765.06
2022-08-09T23:46:35.016Z,97760.34
2022-08-09T23:49:03.464Z,97762.75
2022-08-09T23:51:32.094Z,97756.44
2022-08-09T23:54:03.066Z,97764.59
2022-08-09T23:56:53.115Z,97762.66
2022-08-09T23:59:21.621Z,97754.00
